Portage Lake, Maine
Current Conditions -  °F | °C
As of 4:55 AM on Sunday 26 Oct 2014 (Local Time) from KPQI Reporting Station
Overcast Overcast  
Wind Chill: 40°   Ceiling: 800
Heat Index: 43°   Visibility: 10mi
Dew Point: 37°   Wind: 5mph
Humidity: 81%   Direction: 110°ESE
Pressure: 29.37"   Gusts: NA
Location:  46.7854°N, 68.6205°W
Report Text: KPQI 260855Z AUTO 11004KT 10SM OVC008 06/03 A2937 RMK AO1 P0003 60006 57020
Loading
Personal Weather Stations






























Interactive Weather Map
Tropical Storm Tracking
New forecast layout! Learn more

10-Day Weather Forecast

Advertisements
Track Severe Weather on mobile